This is the latest recevied weather packets stored in our database for station/object XE2B-20. If no packets are shown the sender has not sent any weather packets the latest 10 day(s).
| Time | Temp. | Humidity | Pressure | Rain* | Wind** | Luminosity | Snow |
|---|---|---|---|---|---|---|---|
| 1788156781 | 56° F | 53% | 607 mmHg | - | - | - | - |
| 1788155282 | 56° F | 53% | 607 mmHg | - | - | - | - |
| 1788153784 | 56° F | 52% | 607.2 mmHg | - | - | - | - |
| 1788152285 | 56° F | 51% | 607.4 mmHg | - | - | - | - |
| 1788150786 | 55° F | 52% | 607.5 mmHg | - | - | - | - |
| 1788149286 | 55° F | 52% | 607.1 mmHg | - | - | - | - |
| 1788147789 | 57° F | 51% | 607.3 mmHg | - | - | - | - |
| 1788146297 | 58° F | 50% | 606.7 mmHg | - | - | - | - |
| 1788144791 | 59° F | 49% | 606.1 mmHg | - | - | - | - |
| 1788143295 | 65° F | 45% | 605.6 mmHg | - | - | - | - |
| 1788141797 | 72° F | 39% | 605.2 mmHg | - | - | - | - |
| 1788140300 | 73° F | 38% | 604.6 mmHg | - | - | - | - |
| 1788138801 | 74° F | 38% | 604.6 mmHg | - | - | - | - |
| 1788137302 | 76° F | 38% | 604.3 mmHg | - | - | - | - |
| 1788135805 | 78° F | 37% | 604.2 mmHg | - | - | - | - |
| 1788134306 | 80° F | 36% | 604.2 mmHg | - | - | - | - |
| 1788132807 | 83° F | 35% | 604.2 mmHg | - | - | - | - |
| 1788131309 | 86° F | 34% | 604.3 mmHg | - | - | - | - |
| 1788129810 | 87° F | 34% | 604.4 mmHg | - | - | - | - |
| 1788128313 | 90° F | 32% | 604.3 mmHg | - | - | - | - |
| 1788126820 | 87° F | 35% | 604.6 mmHg | - | - | - | - |
| 1788125316 | 93° F | 32% | 604.8 mmHg | - | - | - | - |
| 1788123819 | 96° F | 30% | 605 mmHg | - | - | - | - |
| 1788122320 | 91° F | 32% | 605.5 mmHg | - | - | - | - |
| 1788120818 | 82° F | 38% | 605.9 mmHg | - | - | - | - |
* Rain since midnight (hover to see other rain measurements)
** Current wind speed in m/s (hover to see current wind gust speed)